Time;durP1;ratioP1;P1;durP2;ratioP2;P2;SDS_P1;SDS_P2;PMS_P1;PMS_P2;Temp;Humidity;BMP_temperature;BMP_pressure;BME280_temperature;BME280_humidity;BME280_pressure;Samples;Min_cycle;Max_cycle;Signal;HPM_P1;HPM_P2
2022/05/15 00:00:45;;;;;;;15.80;8.35;;;;;;;14.52;79.96;99026.59;5161866;27;20395;-91
2022/05/15 00:03:33;;;;;;;17.13;7.63;;;;;;;14.42;80.03;99026.09;5159001;27;20049;-91
2022/05/15 00:06:06;;;;;;;17.23;7.28;;;;;;;14.49;79.55;99019.56;5157896;27;20038;-93
2022/05/15 00:08:38;;;;;;;21.10;8.15;;;;;;;14.47;78.79;99009.88;5160272;27;20066;-91
2022/05/15 00:11:30;;;;;;;13.32;7.03;;;;;;;14.37;79.42;99018.22;5162337;27;20043;-92
2022/05/15 00:14:16;;;;;;;17.63;7.95;;;;;;;14.38;79.70;99027.16;5158155;27;20520;-91
2022/05/15 00:17:35;;;;;;;20.45;8.20;;;;;;;14.28;80.57;99025.75;5156401;27;20039;-91
2022/05/15 00:20:19;;;;;;;17.65;8.98;;;;;;;14.16;81.72;99025.28;5044686;28;20388;-91
2022/05/15 00:24:06;;;;;;;;;;;;;;;;;;;;;
2022/05/15 00:25:58;;;;;;;16.92;8.00;;;;;;;14.07;83.01;99020.25;5008989;28;20034;-91
2022/05/15 00:28:24;;;;;;;20.02;8.77;;;;;;;14.10;81.85;99020.16;5002425;28;20057;-91
2022/05/15 00:30:50;;;;;;;16.05;7.63;;;;;;;14.04;82.56;99020.38;5003056;28;20045;-91
2022/05/15 00:33:26;;;;;;;15.70;8.13;;;;;;;14.01;82.37;98990.22;5002473;28;21008;-91
2022/05/15 00:36:28;;;;;;;21.17;7.97;;;;;;;14.21;81.46;99022.44;5001588;28;20057;-91
2022/05/15 00:39:31;;;;;;;19.95;7.57;;;;;;;14.23;81.24;99014.38;5003929;28;20041;-91
2022/05/15 00:42:31;;;;;;;19.45;8.40;;;;;;;14.15;81.37;99023.53;5005410;28;20426;-92
2022/05/15 00:45:10;;;;;;;14.02;7.65;;;;;;;14.06;81.67;99013.19;4989478;28;20059;-91
2022/05/15 00:47:50;;;;;;;13.70;7.18;;;;;;;14.03;81.63;99018.66;5006340;28;20133;-91
2022/05/15 00:50:45;;;;;;;18.58;7.25;;;;;;;14.04;82.00;99015.03;5004879;28;20041;-91
2022/05/15 00:53:30;;;;;;;14.73;6.82;;;;;;;14.11;81.25;99021.91;5000434;28;20154;-91
2022/05/15 00:56:23;;;;;;;14.50;7.22;;;;;;;14.18;80.45;99017.19;5013226;28;20562;-91
2022/05/15 00:59:24;;;;;;;12.80;6.85;;;;;;;14.35;79.66;99024.56;5142637;27;20431;-92
2022/05/15 01:02:01;;;;;;;15.93;7.18;;;;;;;14.41;79.63;99026.16;5161882;27;20030;-92
2022/05/15 01:04:35;;;;;;;16.73;7.13;;;;;;;14.34;79.48;99015.69;5158049;27;20054;-92
2022/05/15 01:07:20;;;;;;;15.38;7.25;;;;;;;14.29;80.06;99030.16;5159098;27;20113;-91
2022/05/15 01:09:54;;;;;;;14.35;7.88;;;;;;;14.16;81.13;99030.63;5156139;27;20038;-90
2022/05/15 01:12:43;;;;;;;17.77;8.93;;;;;;;14.03;82.11;99037.38;5157179;27;20039;-91
2022/05/15 01:15:19;;;;;;;16.85;8.57;;;;;;;13.79;82.23;98993.69;5157723;27;20049;-91
2022/05/15 01:18:20;;;;;;;21.33;8.70;;;;;;;13.90;83.01;99042.31;5160571;27;20035;-92
2022/05/15 01:21:40;;;;;;;20.58;7.90;;;;;;;13.76;84.12;99034.75;5155675;27;20067;-91
2022/05/15 01:24:32;;;;;;;16.52;8.23;;;;;;;13.63;84.25;99019.22;5145109;27;20098;-91
2022/05/15 01:27:18;;;;;;;18.10;7.75;;;;;;;13.69;84.07;99035.91;5162696;27;20034;-91
2022/05/15 01:30:27;;;;;;;17.63;7.38;;;;;;;13.60;85.33;99030.00;5154178;27;20058;-92
2022/05/15 01:32:57;;;;;;;15.77;7.28;;;;;;;13.54;85.30;99026.63;5112859;27;20039;-91
2022/05/15 01:35:54;;;;;;;17.67;7.53;;;;;;;13.51;85.97;99031.19;5115951;28;20066;-90
2022/05/15 01:38:40;;;;;;;13.27;7.43;;;;;;;13.24;86.66;98999.16;5089545;28;20036;-91
2022/05/15 01:41:13;;;;;;;21.45;7.55;;;;;;;13.40;86.33;99033.38;5089193;28;20059;-91
2022/05/15 01:43:54;;;;;;;;;;;;;;;;;;;;;
2022/05/15 01:50:01;;;;;;;19.63;7.30;;;;;;;13.31;87.02;99039.91;5067369;28;20048;-91
2022/05/15 01:52:51;;;;;;;16.13;7.68;;;;;;;13.20;87.96;99039.38;5078413;28;20127;-91
2022/05/15 01:55:36;;;;;;;16.48;8.23;;;;;;;13.10;88.88;99041.47;5087751;28;20044;-91
2022/05/15 02:01:16;;;;;;;18.15;8.20;;;;;;;13.01;89.87;99036.41;5010035;28;20517;-92
2022/05/15 02:03:42;;;;;;;20.15;8.20;;;;;;;13.02;89.07;99033.72;5010781;28;20073;-91
2022/05/15 02:06:08;;;;;;;16.58;8.25;;;;;;;13.17;88.86;99034.13;5022072;28;20110;-92
2022/05/15 02:08:42;;;;;;;17.77;7.63;;;;;;;13.14;88.77;99024.41;5070888;28;20040;-91
2022/05/15 02:11:26;;;;;;;15.43;7.75;;;;;;;13.14;89.13;99035.09;5069233;28;20063;-91
2022/05/15 02:14:02;;;;;;;21.67;7.70;;;;;;;13.07;89.65;99034.41;5067138;28;20044;-91
2022/05/15 02:23:31;;;;;;;16.88;8.65;;;;;;;12.95;90.14;99027.69;4970235;28;20051;-91
2022/05/15 02:26:25;;;;;;;18.23;8.05;;;;;;;12.95;89.89;99033.03;4987938;28;20042;-90
2022/05/15 02:29:27;;;;;;;16.77;7.95;;;;;;;12.87;91.26;99028.88;4990502;28;20047;-90
2022/05/15 02:32:07;;;;;;;19.10;8.02;;;;;;;12.85;91.60;99026.25;4986256;28;20534;-90
2022/05/15 02:34:59;;;;;;;17.77;7.97;;;;;;;12.86;91.47;99030.69;4991577;28;20046;-91
2022/05/15 02:38:07;;;;;;;20.52;8.50;;;;;;;12.85;91.47;99020.91;5023728;28;20047;-90
2022/05/15 02:40:54;;;;;;;;;;;;;;;;;;;;;
2022/05/15 02:44:00;;;;;;;16.15;7.25;;;;;;;12.85;91.91;99031.59;5099383;28;20044;-92
2022/05/15 02:46:52;;;;;;;15.98;8.38;;;;;;;12.82;92.09;99028.16;5098676;28;20028;-91
2022/05/15 02:52:43;;;;;;;24.52;9.18;;;;;;;12.76;92.03;99031.88;5095778;27;20154;-92
2022/05/15 02:55:15;;;;;;;19.77;8.05;;;;;;;12.73;92.38;99027.53;5084540;28;20382;-92
2022/05/15 02:57:42;;;;;;;20.67;8.65;;;;;;;12.62;93.26;99026.09;5079373;28;20063;-92
2022/05/15 03:00:11;;;;;;;18.75;7.90;;;;;;;12.66;92.83;99028.63;5081848;28;20127;-92
2022/05/15 03:03:02;;;;;;;18.20;8.48;;;;;;;12.64;92.69;99038.50;5080871;28;20049;-93
2022/05/15 03:05:37;;;;;;;19.23;9.20;;;;;;;12.60;92.57;99027.94;5080808;28;20067;-91
2022/05/15 03:08:06;;;;;;;19.88;8.93;;;;;;;12.49;92.96;99017.59;5078796;28;20048;-91
2022/05/15 03:10:33;;;;;;;16.40;8.73;;;;;;;12.51;93.63;99037.09;5076226;28;20062;-92
2022/05/15 03:13:00;;;;;;;18.95;8.48;;;;;;;12.41;93.74;99020.53;5078992;28;20167;-92
2022/05/15 03:15:28;;;;;;;17.97;8.60;;;;;;;12.38;92.87;99017.06;5077908;28;20429;-90
2022/05/15 03:18:26;;;;;;;17.23;8.52;;;;;;;12.47;93.60;99047.00;5079116;28;20035;-90
2022/05/15 03:21:28;;;;;;;18.15;8.10;;;;;;;12.38;93.27;99031.25;5080985;28;20117;-91
2022/05/15 03:24:02;;;;;;;17.63;8.90;;;;;;;12.40;94.08;99052.56;5064090;28;20059;-90
2022/05/15 03:26:36;;;;;;;26.90;10.77;;;;;;;12.36;94.34;99056.22;5080137;28;20040;-91
2022/05/15 03:29:15;;;;;;;19.48;8.18;;;;;;;12.25;94.28;99048.56;5079972;28;20402;-90
2022/05/15 03:31:53;;;;;;;20.10;9.43;;;;;;;12.31;94.21;99056.38;5078696;28;20045;-90
2022/05/15 03:34:46;;;;;;;18.42;9.00;;;;;;;12.39;94.07;99053.50;5078599;28;20040;-91
2022/05/15 03:40:55;;;;;;;19.65;8.90;;;;;;;12.24;96.03;99058.34;5061416;28;20048;-91
2022/05/15 03:43:22;;;;;;;21.50;9.90;;;;;;;12.22;95.65;99052.19;5078938;28;20499;-90
2022/05/15 03:48:46;;;;;;;25.85;9.65;;;;;;;12.20;96.63;99048.69;5069264;28;20563;-90
2022/05/15 03:51:59;;;;;;;20.00;9.43;;;;;;;12.20;96.30;99056.69;5078526;28;20051;-91
2022/05/15 03:54:37;;;;;;;;;;;;;;;12.19;97.14;99062.06;5067683;28;20486;-92
2022/05/15 03:57:31;;;;;;;20.15;9.38;;;;;;;12.21;96.36;99062.88;5056449;28;19923;-91
2022/05/15 04:00:01;;;;;;;17.58;9.43;;;;;;;12.22;95.79;99061.97;5077073;28;20398;-91
2022/05/15 04:02:43;;;;;;;24.60;9.70;;;;;;;12.04;95.13;99037.59;5073397;28;20041;-92
2022/05/15 04:05:21;;;;;;;19.77;9.25;;;;;;;12.18;95.83;99063.84;5067622;28;20040;-91
2022/05/15 04:07:50;;;;;;;18.38;9.50;;;;;;;12.13;96.21;99053.31;5069573;28;20041;-92
2022/05/15 04:10:22;;;;;;;19.90;10.43;;;;;;;12.06;96.41;99040.22;5068390;28;20510;-92
2022/05/15 04:12:49;;;;;;;20.17;9.30;;;;;;;12.17;95.97;99055.91;5065424;28;20361;-92
2022/05/15 04:15:22;;;;;;;22.17;9.98;;;;;;;12.23;95.63;99058.38;5061518;28;20033;-92
2022/05/15 04:17:52;;;;;;;24.70;9.70;;;;;;;12.13;95.35;99048.00;5066397;28;20037;-91
2022/05/15 04:20:30;;;;;;;19.27;9.80;;;;;;;12.24;95.91;99068.16;5070170;28;20064;-92
2022/05/15 04:23:01;;;;;;;21.58;9.15;;;;;;;12.21;95.94;99070.88;5063001;28;20549;-91
2022/05/15 04:25:46;;;;;;;19.58;9.15;;;;;;;12.30;96.12;99065.31;5067146;28;20033;-92
2022/05/15 04:28:59;;;;;;;21.48;9.65;;;;;;;12.35;95.55;99066.03;5068280;28;20040;-91
2022/05/15 04:31:56;;;;;;;;;;;;;;;;;;;;;
2022/05/15 04:34:38;;;;;;;24.60;9.70;;;;;;;12.38;95.91;99070.41;5062559;28;20040;-92
2022/05/15 04:37:26;;;;;;;20.70;10.23;;;;;;;12.40;96.01;99072.09;5062936;28;20490;-91
2022/05/15 04:39:55;;;;;;;19.00;9.77;;;;;;;12.32;95.47;99059.00;5064220;28;20386;-92
2022/05/15 04:43:00;;;;;;;18.08;9.32;;;;;;;12.51;95.19;99075.34;5063179;28;20051;-92
2022/05/15 04:46:07;;;;;;;19.98;9.77;;;;;;;12.56;95.02;99074.34;5057313;28;20127;-92
2022/05/15 04:49:15;;;;;;;26.60;10.25;;;;;;;12.58;95.44;99080.47;5066260;28;20060;-91
2022/05/15 04:52:05;;;;;;;20.80;9.52;;;;;;;12.59;95.47;99076.91;5064978;28;20040;-91
2022/05/15 04:54:40;;;;;;;19.85;9.75;;;;;;;12.62;95.58;99082.13;5065826;28;20064;-92
2022/05/15 04:57:48;;;;;;;23.17;10.38;;;;;;;12.67;95.57;99077.53;5066197;28;20064;-92
2022/05/15 05:00:37;;;;;;;23.20;9.75;;;;;;;12.73;94.42;99069.34;5064752;28;20109;-92
2022/05/15 05:03:39;;;;;;;19.13;9.95;;;;;;;13.49;91.80;99084.72;5062736;28;20037;-92
2022/05/15 05:10:34;;;;;;;21.67;9.73;;;;;;;14.60;83.50;99077.22;4968394;28;20544;-92
2022/05/15 05:13:15;;;;;;;21.13;10.25;;;;;;;15.02;79.46;99066.59;5021247;28;20128;-93
2022/05/15 05:15:44;;;;;;;18.17;9.77;;;;;;;15.28;78.17;99059.28;5019586;28;20071;-91
2022/05/15 05:18:53;;;;;;;24.13;10.43;;;;;;;15.71;77.37;99078.91;5017426;28;20570;-92
2022/05/15 05:21:52;;;;;;;27.55;10.18;;;;;;;16.04;75.51;99078.41;5023594;28;20060;-93
2022/05/15 05:24:25;;;;;;;24.90;9.52;;;;;;;16.29;74.70;99070.16;5022827;28;20609;-92
2022/05/15 05:27:03;;;;;;;22.92;9.63;;;;;;;16.36;73.71;99066.22;5027430;28;20042;-92
2022/05/15 05:29:35;;;;;;;24.45;9.43;;;;;;;16.37;73.64;99051.84;5024777;28;20514;-92
2022/05/15 05:32:02;;;;;;;17.77;8.73;;;;;;;16.78;70.71;99076.75;5021642;28;20042;-92
2022/05/15 05:41:57;;;;;;;25.98;9.38;;;;;;;17.39;68.25;99074.75;4946028;28;20096;-92
2022/05/15 05:44:50;;;;;;;19.45;9.20;;;;;;;17.58;66.47;99080.06;4949128;29;20059;-92
2022/05/15 05:47:55;;;;;;;21.20;9.57;;;;;;;17.56;66.86;99081.97;4934526;29;20138;-91
2022/05/15 05:50:49;;;;;;;17.33;8.85;;;;;;;17.77;65.18;99082.69;4945206;29;20479;-92
2022/05/15 05:53:28;;;;;;;20.05;9.20;;;;;;;17.78;64.97;99081.75;4949339;29;20047;-92
2022/05/15 05:55:53;;;;;;;20.75;9.73;;;;;;;17.66;65.53;99056.34;4945428;29;20047;-92
2022/05/15 05:58:19;;;;;;;24.77;10.60;;;;;;;17.89;64.86;99075.84;4947225;28;20043;-91
2022/05/15 06:00:45;;;;;;;25.55;10.02;;;;;;;17.80;65.02;99067.28;4944206;28;20541;-92
2022/05/15 06:06:14;;;;;;;28.08;11.23;;;;;;;17.86;65.43;99069.66;5120066;27;20434;-91
2022/05/15 06:08:42;;;;;;;20.35;9.27;;;;;;;17.80;65.70;99064.59;5106889;28;20516;-92
2022/05/15 06:11:08;;;;;;;18.60;10.15;;;;;;;17.82;66.04;99073.47;5099123;28;20048;-91
2022/05/15 06:13:34;;;;;;;21.73;9.75;;;;;;;17.73;66.06;99065.84;5099990;28;20047;-93
2022/05/15 06:15:59;;;;;;;19.48;9.38;;;;;;;17.65;66.30;99066.25;5101953;28;20400;-92
2022/05/15 06:18:25;;;;;;;19.77;8.93;;;;;;;17.64;66.18;99075.25;5103430;28;20024;-92
2022/05/15 06:20:51;;;;;;;21.85;10.05;;;;;;;17.81;66.21;99074.38;5104627;28;20039;-91
2022/05/15 06:23:18;;;;;;;21.88;9.52;;;;;;;17.53;67.87;99071.38;5099325;28;20032;-91
2022/05/15 06:25:44;;;;;;;19.08;9.15;;;;;;;17.66;66.53;99092.19;5098306;28;20850;-91
2022/05/15 06:28:10;;;;;;;19.83;8.70;;;;;;;17.71;66.83;99081.19;5097362;28;20455;-90
2022/05/15 06:30:37;;;;;;;23.70;9.85;;;;;;;17.67;67.80;99079.59;5101288;28;20040;-92
2022/05/15 06:33:03;;;;;;;21.50;9.82;;;;;;;17.79;67.70;99081.66;5100198;28;20032;-91
2022/05/15 06:35:28;;;;;;;22.38;9.32;;;;;;;17.80;67.84;99075.34;5098900;28;20114;-91
2022/05/15 06:37:54;;;;;;;18.45;9.05;;;;;;;18.08;67.22;99086.50;5100094;28;20040;-91
2022/05/15 06:40:22;;;;;;;21.20;9.20;;;;;;;18.29;65.47;99092.59;5102779;28;20036;-91
2022/05/15 06:42:52;;;;;;;21.75;8.85;;;;;;;18.38;64.65;99087.56;5100193;28;20109;-90
2022/05/15 06:45:22;;;;;;;21.00;8.90;;;;;;;18.37;64.14;99058.06;5104029;28;20036;-90
2022/05/15 06:47:47;;;;;;;20.17;9.30;;;;;;;18.66;63.23;99069.91;5097163;28;20063;-92
2022/05/15 06:50:13;;;;;;;19.33;10.15;;;;;;;18.70;61.95;99062.53;5103688;28;20343;-91
2022/05/15 06:52:39;;;;;;;23.45;9.63;;;;;;;18.79;63.16;99053.97;5098530;28;20036;-91
2022/05/15 06:55:07;;;;;;;19.88;10.00;;;;;;;18.75;64.59;99077.47;5102840;28;20028;-90
2022/05/15 06:57:35;;;;;;;23.08;10.48;;;;;;;18.63;64.25;99087.13;5098944;28;20044;-91
2022/05/15 07:00:04;;;;;;;26.88;10.13;;;;;;;18.78;64.46;99071.06;5098193;28;20052;-91
2022/05/15 07:02:30;;;;;;;22.33;10.98;;;;;;;18.68;64.76;99063.47;5095176;28;20032;-92
2022/05/15 07:04:57;;;;;;;19.45;8.65;;;;;;;18.96;65.24;99053.00;5093674;28;20070;-91
2022/05/15 07:07:23;;;;;;;21.55;10.55;;;;;;;19.17;64.43;99073.34;5095017;28;20043;-92
2022/05/15 07:09:49;;;;;;;17.83;9.73;;;;;;;19.37;64.37;99068.63;5099393;28;20047;-91
2022/05/15 07:12:15;;;;;;;21.75;10.50;;;;;;;19.56;62.23;99052.22;5099406;28;20140;-91
2022/05/15 07:14:43;;;;;;;25.63;11.63;;;;;;;19.86;61.81;99063.91;5097164;28;20035;-91
2022/05/15 07:17:09;;;;;;;20.10;9.98;;;;;;;20.09;61.25;99050.84;5088308;28;20047;-90
2022/05/15 07:19:35;;;;;;;17.27;10.02;;;;;;;20.18;60.15;99031.34;5084594;28;20563;-94
2022/05/15 07:22:01;;;;;;;22.95;10.43;;;;;;;20.52;58.89;99050.84;5088663;28;20508;-92
2022/05/15 07:24:28;;;;;;;21.05;10.65;;;;;;;20.69;57.76;99053.38;5083831;28;20037;-92
2022/05/15 07:26:53;;;;;;;17.27;9.85;;;;;;;20.79;58.39;99037.44;5084455;28;20064;-92
2022/05/15 07:29:20;;;;;;;21.70;10.98;;;;;;;20.97;56.94;99035.38;5087274;28;20702;-92
2022/05/15 07:31:47;;;;;;;26.58;10.02;;;;;;;21.12;56.92;99049.69;5084514;28;20060;-91
2022/05/15 07:34:13;;;;;;;20.50;10.32;;;;;;;20.71;58.06;99054.16;5081290;28;20064;-92
2022/05/15 07:36:39;;;;;;;23.88;10.85;;;;;;;20.65;57.44;99045.56;5062825;28;20118;-91
2022/05/15 07:39:04;;;;;;;20.65;10.40;;;;;;;20.82;57.44;99039.06;5068517;28;21336;-92
2022/05/15 07:41:30;;;;;;;23.55;10.07;;;;;;;21.15;56.78;99044.09;5062411;28;20045;-90
2022/05/15 07:43:56;;;;;;;27.63;11.35;;;;;;;21.27;56.99;99037.00;5066941;28;20561;-92
2022/05/15 07:46:22;;;;;;;25.58;10.95;;;;;;;21.47;55.12;99047.41;5064630;28;20041;-91
2022/05/15 07:48:49;;;;;;;21.15;10.60;;;;;;;21.48;56.42;99032.88;5065703;28;20036;-91
2022/05/15 07:51:15;;;;;;;24.08;10.73;;;;;;;21.38;56.63;99053.38;5065865;28;20044;-92
2022/05/15 07:53:41;;;;;;;25.20;10.60;;;;;;;21.41;57.71;99037.00;5065535;28;20044;-92
2022/05/15 07:56:09;;;;;;;18.98;9.57;;;;;;;21.56;55.97;99048.63;5069879;28;20041;-92
2022/05/15 07:58:35;;;;;;;20.80;9.93;;;;;;;21.79;55.60;99041.63;5066899;28;20033;-91
2022/05/15 08:01:04;;;;;;;19.83;10.65;;;;;;;21.93;53.07;99040.69;5064367;28;20090;-93
2022/05/15 08:03:33;;;;;;;23.05;11.88;;;;;;;21.50;54.22;99052.59;5064741;28;20039;-92
2022/05/15 08:09:03;;;;;;;23.67;12.32;;;;;;;21.28;56.27;99036.06;5086722;27;20420;-92
2022/05/15 08:11:29;;;;;;;21.65;11.43;;;;;;;21.40;56.10;99027.09;5066688;28;20780;-92
2022/05/15 08:14:00;;;;;;;21.17;10.55;;;;;;;21.45;54.89;99030.41;5066314;28;20033;-93
2022/05/15 08:16:30;;;;;;;20.30;10.20;;;;;;;21.64;56.47;99021.91;5064224;28;20039;-92
2022/05/15 08:24:52;;;;;;;25.85;10.93;;;;;;;22.61;50.99;99011.53;5036941;27;20755;-90
2022/05/15 08:27:18;;;;;;;21.63;10.00;;;;;;;22.62;53.16;99013.25;5028452;28;20124;-91
2022/05/15 08:29:43;;;;;;;16.30;10.00;;;;;;;22.92;51.61;99020.97;5031728;28;20453;-92
2022/05/15 08:32:10;;;;;;;19.05;9.60;;;;;;;23.13;50.89;99013.97;5052366;28;20041;-91
2022/05/15 08:34:36;;;;;;;18.73;9.93;;;;;;;23.32;50.49;99010.75;5022969;28;20040;-92
2022/05/15 08:37:02;;;;;;;21.38;9.70;;;;;;;23.41;49.64;99001.03;5050897;28;20057;-92
2022/05/15 08:39:29;;;;;;;17.85;9.73;;;;;;;23.56;49.56;99024.31;5035095;28;20404;-91
2022/05/15 08:42:12;;;;;;;25.50;10.05;;;;;;;23.63;48.96;99008.41;5039988;28;20039;-91
2022/05/15 08:44:44;;;;;;;21.25;9.82;;;;;;;23.74;48.73;99004.84;5022375;28;20091;-92
2022/05/15 08:47:18;;;;;;;21.13;10.23;;;;;;;23.54;49.37;99004.53;5016121;28;20487;-92
2022/05/15 08:49:48;;;;;;;21.90;10.07;;;;;;;22.86;51.14;98994.34;5031103;28;20035;-92
2022/05/15 08:52:18;;;;;;;17.05;9.05;;;;;;;23.25;49.94;99012.22;5025054;28;20070;-92
2022/05/15 08:54:54;;;;;;;19.95;9.57;;;;;;;23.43;50.88;99012.66;5037853;28;20043;-92
2022/05/15 08:57:32;;;;;;;23.75;9.60;;;;;;;23.56;50.16;98991.72;5041230;28;20038;-92
2022/05/15 09:00:00;;;;;;;20.15;9.63;;;;;;;23.97;49.32;98994.94;5030582;28;20536;-92
2022/05/15 09:02:25;;;;;;;19.42;9.48;;;;;;;24.32;47.70;99007.59;5043893;28;20054;-93
2022/05/15 09:04:53;;;;;;;20.05;9.88;;;;;;;24.19;48.05;99002.25;5024535;28;20083;-91
2022/05/15 09:07:33;;;;;;;16.88;9.00;;;;;;;24.26;47.02;98989.06;5024004;28;20050;-95
2022/05/15 09:10:11;;;;;;;18.80;9.82;;;;;;;24.48;47.52;98999.06;5027302;28;20049;-92
2022/05/15 09:12:42;;;;;;;22.20;10.03;;;;;;;24.20;47.54;99009.41;5028061;28;20110;-92
2022/05/15 09:15:12;;;;;;;21.10;9.40;;;;;;;24.29;47.36;99000.56;5018338;28;20047;-91
2022/05/15 09:17:49;;;;;;;24.27;9.60;;;;;;;24.36;47.93;98998.19;5026062;28;20042;-94
2022/05/15 09:20:19;;;;;;;16.45;9.18;;;;;;;24.19;47.80;98999.53;5031547;28;20463;-91
2022/05/15 09:22:50;;;;;;;16.55;9.18;;;;;;;24.42;47.74;99004.97;5033332;28;20046;-89
2022/05/15 09:25:20;;;;;;;17.45;9.38;;;;;;;24.62;46.67;99001.56;5040193;28;20125;-91
2022/05/15 09:28:03;;;;;;;15.40;9.02;;;;;;;24.91;47.24;98990.13;5038708;28;20168;-92
2022/05/15 09:30:36;;;;;;;16.05;9.15;;;;;;;25.11;46.33;98981.19;5035935;28;20141;-93
2022/05/15 09:33:02;;;;;;;17.85;8.98;;;;;;;25.06;46.14;98998.88;5014959;28;20050;-91
2022/05/15 09:35:32;;;;;;;18.42;9.38;;;;;;;25.30;46.19;98983.25;5012855;28;20126;-90
2022/05/15 09:44:24;;;;;;;18.48;9.32;;;;;;;25.47;45.60;98986.41;5088338;27;20381;-92
2022/05/15 09:46:56;;;;;;;20.60;10.13;;;;;;;25.32;46.02;98983.97;5089131;28;20119;-92
2022/05/15 09:49:26;;;;;;;19.42;9.40;;;;;;;25.45;45.77;98961.16;5087264;28;20036;-91
2022/05/15 09:51:55;;;;;;;18.42;8.75;;;;;;;25.78;44.65;98976.44;5088844;28;20044;-90
2022/05/15 09:54:41;;;;;;;16.83;9.15;;;;;;;25.94;44.21;98986.94;5088390;28;20041;-92
2022/05/15 09:57:15;;;;;;;20.13;9.20;;;;;;;25.59;43.77;98972.59;5088169;28;20052;-93
2022/05/15 09:59:50;;;;;;;17.92;8.70;;;;;;;25.70;44.82;98982.56;5087047;28;20438;-92
2022/05/15 10:02:19;;;;;;;20.00;9.52;;;;;;;25.80;44.05;98975.31;5088168;28;20046;-91
2022/05/15 10:04:49;;;;;;;21.58;8.75;;;;;;;25.69;42.68;98972.66;5087456;28;20043;-93
2022/05/15 10:07:29;;;;;;;17.63;8.95;;;;;;;25.70;45.27;98963.50;5085959;28;20036;-93
2022/05/15 10:10:10;;;;;;;17.08;8.93;;;;;;;25.88;44.49;98962.91;5088416;28;20059;-94
2022/05/15 10:12:39;;;;;;;23.55;10.27;;;;;;;25.98;44.40;98956.53;5088286;28;20482;-91
2022/05/15 10:15:07;;;;;;;;;;;;;;;26.15;42.76;98954.19;5087506;28;20055;-90
2022/05/15 10:17:33;;;;;;;20.45;9.13;;;;;;;26.34;44.26;98962.44;5086958;28;20386;-92
2022/05/15 10:20:07;;;;;;;17.38;9.13;;;;;;;26.44;42.18;98949.72;5088319;28;20115;-92
2022/05/15 10:22:37;;;;;;;18.08;8.98;;;;;;;26.39;42.85;98938.38;5086920;28;20037;-93
2022/05/15 10:25:14;;;;;;;21.98;9.05;;;;;;;25.76;43.04;98949.34;5086799;28;20063;-93
2022/05/15 10:27:46;;;;;;;18.58;8.80;;;;;;;25.78;43.74;98955.50;5086451;28;20107;-93
2022/05/15 10:30:19;;;;;;;16.45;9.32;;;;;;;25.72;43.60;98941.56;5088781;28;20358;-93
2022/05/15 10:32:51;;;;;;;25.38;10.05;;;;;;;26.06;44.32;98934.03;5087947;28;20044;-94
2022/05/15 10:35:35;;;;;;;18.17;9.50;;;;;;;26.12;45.28;98938.09;5090592;28;20661;-94
2022/05/15 10:38:13;;;;;;;18.45;9.80;;;;;;;25.82;43.61;98943.34;5087133;28;20044;-91
2022/05/15 10:40:45;;;;;;;18.43;9.30;;;;;;;25.79;43.00;98921.84;5087317;28;20036;-93
2022/05/15 10:43:28;;;;;;;16.58;9.35;;;;;;;25.89;43.17;98940.97;5080984;28;20293;-93
2022/05/15 10:46:03;;;;;;;25.45;9.35;;;;;;;25.72;44.71;98925.22;5086177;28;20064;-93
2022/05/15 10:48:42;;;;;;;15.88;8.68;;;;;;;26.35;43.99;98933.31;5087799;28;20044;-91
2022/05/15 10:51:16;;;;;;;15.93;8.95;;;;;;;26.55;43.04;98940.56;5088289;28;20044;-90
2022/05/15 10:57:30;;;;;;;15.57;7.95;;;;;;;26.61;41.94;98933.75;5114801;27;20379;-93
2022/05/15 11:00:05;;;;;;;13.00;8.05;;;;;;;26.90;40.20;98932.94;5098347;28;20047;-93
2022/05/15 11:03:06;;;;;;;14.45;7.93;;;;;;;27.29;41.16;98933.84;5094022;28;20044;-93
2022/05/15 11:05:34;;;;;;;17.15;7.13;;;;;;;27.34;39.33;98925.22;5097590;28;20044;-94
2022/05/15 11:08:18;;;;;;;13.32;6.90;;;;;;;26.51;39.24;98924.63;5092742;28;20098;-92
2022/05/15 11:10:54;;;;;;;17.75;7.05;;;;;;;26.14;39.17;98919.75;5095501;28;20043;-91
2022/05/15 11:13:39;;;;;;;14.45;7.30;;;;;;;26.06;39.44;98901.34;5102754;28;20046;-92
2022/05/15 11:16:12;;;;;;;14.27;6.43;;;;;;;26.28;39.83;98922.09;5095556;28;20044;-93
2022/05/15 11:19:22;;;;;;;13.07;6.50;;;;;;;26.15;38.98;98918.75;5092144;28;20076;-93
2022/05/15 11:21:55;;;;;;;13.35;6.30;;;;;;;26.71;40.89;98910.03;5052410;28;20052;-91
2022/05/15 11:24:35;;;;;;;14.02;6.07;;;;;;;27.18;39.88;98929.34;5071677;28;20189;-92
2022/05/15 11:27:11;;;;;;;12.27;5.72;;;;;;;27.51;38.26;98910.81;5074455;28;20056;-91
2022/05/15 11:29:42;;;;;;;12.43;5.95;;;;;;;27.54;36.39;98896.91;5075363;28;20044;-91
2022/05/15 11:32:29;;;;;;;14.90;6.13;;;;;;;27.89;35.27;98911.78;5075199;28;20045;-91
2022/05/15 11:35:21;;;;;;;13.07;6.53;;;;;;;27.77;36.30;98910.19;5070268;28;20044;-94
2022/05/15 11:37:59;;;;;;;12.30;5.35;;;;;;;27.78;36.16;98898.25;5060799;28;20045;-93
2022/05/15 11:40:33;;;;;;;11.60;5.47;;;;;;;27.84;33.50;98876.66;5075726;28;20465;-92
2022/05/15 11:43:19;;;;;;;11.80;5.20;;;;;;;27.81;34.53;98890.63;5069468;28;20091;-89
2022/05/15 11:45:50;;;;;;;13.90;5.68;;;;;;;27.81;35.00;98896.09;5070866;28;20510;-93
2022/05/15 11:48:21;;;;;;;12.75;5.00;;;;;;;27.87;34.20;98894.69;5069381;28;20037;-92
2022/05/15 11:50:56;;;;;;;11.10;5.40;;;;;;;27.80;34.16;98888.91;5073625;28;20136;-93
2022/05/15 11:53:28;;;;;;;13.25;5.05;;;;;;;27.41;34.38;98891.72;5067233;28;20144;-94
2022/05/15 11:55:55;;;;;;;13.13;5.20;;;;;;;26.92;33.35;98884.53;5071155;28;20083;-92
2022/05/15 11:58:39;;;;;;;10.80;4.93;;;;;;;27.23;33.62;98904.38;5083316;28;20036;-93
2022/05/15 12:01:38;;;;;;;15.05;5.47;;;;;;;27.51;33.53;98878.03;5088630;28;20056;-91
2022/05/15 12:04:09;;;;;;;11.73;4.60;;;;;;;27.77;31.98;98894.66;5092437;28;20048;-92
2022/05/15 12:06:47;;;;;;;12.18;4.65;;;;;;;27.70;32.12;98882.63;5090576;28;20039;-92
2022/05/15 12:09:30;;;;;;;12.65;4.88;;;;;;;27.65;31.67;98888.53;5077025;28;20059;-91
2022/05/15 12:12:16;;;;;;;9.38;4.07;;;;;;;27.59;32.29;98874.59;5078385;28;20051;-92
2022/05/15 12:15:03;;;;;;;11.77;4.70;;;;;;;27.64;32.22;98883.19;5081540;28;20090;-93
2022/05/15 12:17:31;;;;;;;8.10;4.25;;;;;;;27.14;31.66;98870.59;5075528;28;20044;-93
2022/05/15 12:20:03;;;;;;;6.80;4.28;;;;;;;26.94;32.02;98866.16;5077696;28;20047;-94
2022/05/15 12:22:36;;;;;;;11.70;4.38;;;;;;;27.27;31.54;98881.25;5084350;28;20051;-94
2022/05/15 12:25:09;;;;;;;11.57;4.63;;;;;;;27.01;30.95;98875.47;5077340;28;20448;-93
2022/05/15 12:27:49;;;;;;;8.20;4.00;;;;;;;26.92;30.58;98870.88;5075857;28;20600;-92
2022/05/15 12:30:18;;;;;;;11.57;4.10;;;;;;;26.99;29.31;98861.09;5075141;28;20441;-95
2022/05/15 12:32:50;;;;;;;11.85;4.20;;;;;;;26.94;29.38;98877.91;5081904;28;20036;-95
2022/05/15 12:35:24;;;;;;;11.68;4.35;;;;;;;26.91;30.25;98883.66;5076773;28;20041;-93
2022/05/15 12:37:56;;;;;;;9.70;4.00;;;;;;;26.96;29.51;98845.03;5076454;28;20045;-93
2022/05/15 12:40:31;;;;;;;8.93;3.90;;;;;;;27.21;29.58;98873.59;5080084;28;20070;-93
2022/05/15 12:43:21;;;;;;;10.07;3.72;;;;;;;27.69;30.18;98875.41;5075862;28;20441;-92
2022/05/15 12:45:51;;;;;;;9.27;4.07;;;;;;;27.63;28.27;98868.69;5079227;28;20029;-95
2022/05/15 12:48:19;;;;;;;9.50;3.90;;;;;;;27.59;28.26;98861.78;5077641;28;20209;-92
2022/05/15 12:50:50;;;;;;;11.82;4.22;;;;;;;27.62;29.95;98850.56;5080243;28;20047;-92
2022/05/15 12:53:23;;;;;;;9.68;4.45;;;;;;;27.64;28.20;98862.19;5081823;28;20063;-95
2022/05/15 12:55:50;;;;;;;10.07;3.90;;;;;;;27.14;28.01;98861.53;5075949;28;20091;-94
2022/05/15 12:58:29;;;;;;;8.63;3.90;;;;;;;27.63;28.55;98873.28;5077390;28;20043;-93
2022/05/15 13:00:56;;;;;;;10.55;4.18;;;;;;;27.93;29.03;98871.34;5076686;28;20044;-91
2022/05/15 13:03:24;;;;;;;9.73;3.80;;;;;;;28.12;29.03;98860.31;5078392;28;20048;-94
2022/05/15 13:05:53;;;;;;;10.20;3.95;;;;;;;27.96;28.16;98855.50;5081119;28;20048;-92
2022/05/15 13:08:19;;;;;;;9.35;3.85;;;;;;;28.06;29.30;98864.53;5075072;28;20045;-93
2022/05/15 13:10:53;;;;;;;12.52;3.83;;;;;;;28.26;27.97;98851.63;5077621;28;20437;-93